Time;durP1;ratioP1;P1;durP2;ratioP2;P2;SDS_P1;SDS_P2;PMS_P1;PMS_P2;Temp;Humidity;BMP_temperature;BMP_pressure;BME280_temperature;BME280_humidity;BME280_pressure;Samples;Min_cycle;Max_cycle;Signal;HPM_P1;HPM_P2
2021/03/10 00:00:22;;;;;;;17.35;6.00;;;4.70;91.20;;;;;;5089680;28;20350;-61
2021/03/10 00:02:49;;;;;;;15.85;6.28;;;4.70;91.10;;;;;;5089480;28;20051;-61
2021/03/10 00:05:19;;;;;;;15.35;7.53;;;4.80;91.20;;;;;;5090804;28;20054;-60
2021/03/10 00:07:49;;;;;;;13.17;6.17;;;4.70;91.20;;;;;;5083475;28;20068;-61
2021/03/10 00:10:16;;;;;;;20.33;5.82;;;4.80;91.10;;;;;;5066076;28;20359;-61
2021/03/10 00:12:44;;;;;;;14.40;6.60;;;4.80;91.10;;;;;;5065098;28;20072;-61
2021/03/10 00:15:15;;;;;;;12.68;6.10;;;4.80;91.10;;;;;;5077857;28;20092;-60
2021/03/10 00:17:43;;;;;;;18.23;6.30;;;4.80;91.20;;;;;;5090328;28;20255;-60
2021/03/10 00:20:13;;;;;;;18.77;7.78;;;4.80;90.90;;;;;;5088937;28;20044;-60
2021/03/10 00:22:41;;;;;;;15.93;6.93;;;4.90;91.30;;;;;;5087316;28;20050;-61
2021/03/10 00:25:09;;;;;;;13.55;5.97;;;4.90;91.10;;;;;;5087867;28;20078;-61
2021/03/10 00:27:37;;;;;;;14.25;6.85;;;4.90;91.20;;;;;;5084828;28;20343;-60
2021/03/10 00:30:06;;;;;;;16.80;6.53;;;5.10;90.40;;;;;;5084698;28;20366;-60
2021/03/10 00:32:36;;;;;;;16.67;7.15;;;5.00;90.50;;;;;;5069928;28;20052;-60
2021/03/10 00:35:04;;;;;;;17.73;6.90;;;4.80;91.30;;;;;;5063395;28;20076;-60
2021/03/10 00:37:31;;;;;;;18.98;7.45;;;4.70;91.70;;;;;;5063587;28;20044;-60
2021/03/10 00:39:58;;;;;;;15.57;7.13;;;4.70;91.70;;;;;;5066734;28;20314;-60
2021/03/10 00:42:25;;;;;;;16.27;6.95;;;4.70;91.70;;;;;;5062823;28;20283;-60
2021/03/10 00:44:52;;;;;;;14.85;6.05;;;4.60;92.00;;;;;;5060698;28;20065;-61
2021/03/10 00:47:19;;;;;;;17.73;8.43;;;4.60;92.00;;;;;;5067177;28;20460;-61
2021/03/10 00:49:48;;;;;;;15.30;6.35;;;4.60;92.20;;;;;;5069058;28;20068;-61
2021/03/10 00:52:18;;;;;;;19.73;7.22;;;4.70;92.10;;;;;;5075706;28;20434;-61
2021/03/10 00:54:45;;;;;;;16.50;7.47;;;4.60;92.50;;;;;;5085723;28;20048;-60
2021/03/10 00:57:17;;;;;;;17.20;7.05;;;4.60;92.40;;;;;;5084324;28;20085;-60
2021/03/10 00:59:44;;;;;;;17.30;7.88;;;4.70;92.40;;;;;;5085179;27;20247;-60
2021/03/10 01:02:12;;;;;;;19.60;7.60;;;4.70;92.50;;;;;;5079809;28;20069;-59
2021/03/10 01:04:39;;;;;;;18.17;7.45;;;4.70;92.50;;;;;;5079597;28;20052;-60
2021/03/10 01:07:09;;;;;;;19.42;7.32;;;4.70;92.30;;;;;;5082603;28;20204;-60
2021/03/10 01:09:36;;;;;;;17.98;7.13;;;4.70;92.40;;;;;;5064561;28;20124;-61
2021/03/10 01:12:04;;;;;;;17.77;7.60;;;4.70;92.30;;;;;;5080105;28;20055;-60
2021/03/10 01:14:31;;;;;;;13.07;7.00;;;4.70;92.40;;;;;;5070225;28;20048;-61
2021/03/10 01:16:58;;;;;;;16.95;8.05;;;4.70;92.40;;;;;;5084930;27;20049;-60
2021/03/10 01:19:25;;;;;;;17.73;6.80;;;4.70;92.30;;;;;;5087502;28;20274;-60
2021/03/10 01:21:52;;;;;;;13.25;7.13;;;4.70;92.30;;;;;;5086770;28;20048;-60
2021/03/10 01:24:20;;;;;;;16.83;6.88;;;4.80;92.10;;;;;;5085739;28;20055;-61
2021/03/10 01:26:47;;;;;;;16.83;8.13;;;4.70;91.80;;;;;;5086689;28;20044;-60
2021/03/10 01:29:14;;;;;;;17.65;6.45;;;4.70;92.30;;;;;;5076700;28;20040;-60
2021/03/10 01:31:40;;;;;;;12.50;6.55;;;4.70;92.20;;;;;;5086257;28;20082;-60
2021/03/10 01:34:08;;;;;;;12.93;5.30;;;4.60;92.30;;;;;;5088660;27;20052;-60
2021/03/10 01:36:35;;;;;;;17.98;7.47;;;4.70;92.40;;;;;;5091900;28;20059;-61
2021/03/10 01:39:05;;;;;;;15.75;7.43;;;4.70;92.40;;;;;;5089019;28;20052;-61
2021/03/10 01:41:33;;;;;;;19.92;7.95;;;4.70;92.30;;;;;;5082250;28;20049;-60
2021/03/10 01:44:00;;;;;;;15.90;6.47;;;4.70;92.00;;;;;;5067064;28;21130;-61
2021/03/10 01:46:39;;;;;;;15.50;6.53;;;4.70;92.20;;;;;;5072926;28;20048;-61
2021/03/10 01:49:08;;;;;;;19.98;6.78;;;4.70;92.30;;;;;;5079676;28;20525;-61
2021/03/10 01:51:37;;;;;;;16.60;6.30;;;4.70;92.30;;;;;;5087287;28;20244;-60
2021/03/10 01:54:05;;;;;;;13.00;5.85;;;4.70;92.40;;;;;;5087244;28;20059;-61
2021/03/10 01:56:34;;;;;;;17.80;7.15;;;4.80;92.40;;;;;;5089257;28;20052;-60
2021/03/10 01:59:04;;;;;;;15.57;6.65;;;4.80;92.50;;;;;;5087153;28;21225;-61
2021/03/10 02:01:31;;;;;;;21.92;7.85;;;4.70;92.40;;;;;;5086459;28;20839;-60
2021/03/10 02:04:02;;;;;;;16.10;6.35;;;4.70;92.70;;;;;;5089441;28;20062;-60
2021/03/10 02:06:37;;;;;;;13.95;6.45;;;4.80;92.60;;;;;;5073091;28;20112;-60
2021/03/10 02:09:12;;;;;;;15.98;6.63;;;4.80;92.50;;;;;;5089929;27;20335;-60
2021/03/10 02:11:47;;;;;;;13.70;6.00;;;4.80;92.60;;;;;;5078817;28;20351;-60
2021/03/10 02:14:24;;;;;;;14.10;6.07;;;4.90;92.20;;;;;;5074423;27;20060;-60
2021/03/10 02:16:55;;;;;;;16.38;7.20;;;4.90;92.10;;;;;;5061164;28;20308;-61
2021/03/10 02:19:56;;;;;;;15.73;6.40;;;4.90;91.60;;;;;;5071640;28;20264;-61
2021/03/10 02:22:42;;;;;;;14.85;6.63;;;4.90;92.10;;;;;;5088941;28;21124;-59
2021/03/10 02:25:15;;;;;;;21.05;8.13;;;4.80;91.90;;;;;;5085934;28;20063;-60
2021/03/10 02:27:46;;;;;;;18.02;6.88;;;4.90;92.00;;;;;;5081830;28;20048;-60
2021/03/10 02:30:15;;;;;;;;;;;4.80;92.10;;;;;;5086149;28;20052;-60
2021/03/10 02:32:49;;;;;;;14.90;6.68;;;4.80;92.30;;;;;;5088837;28;20004;-60
2021/03/10 02:35:20;;;;;;;14.55;6.32;;;4.80;92.30;;;;;;5088799;28;20450;-60
2021/03/10 02:37:51;;;;;;;18.50;8.75;;;4.70;92.30;;;;;;5088679;28;20044;-61
2021/03/10 02:40:20;;;;;;;17.67;7.70;;;4.70;92.40;;;;;;5067568;28;20219;-59
2021/03/10 02:42:49;;;;;;;15.15;7.32;;;4.70;92.40;;;;;;5088529;27;20063;-61
2021/03/10 02:45:17;;;;;;;15.80;7.25;;;4.70;92.60;;;;;;5079234;28;20202;-61
2021/03/10 02:47:44;;;;;;;17.30;6.68;;;4.70;92.50;;;;;;5056000;28;20118;-59
2021/03/10 02:50:13;;;;;;;15.70;7.28;;;4.70;92.60;;;;;;5098232;27;20050;-61
2021/03/10 02:52:41;;;;;;;13.85;6.95;;;4.60;92.60;;;;;;5082115;28;20414;-62
2021/03/10 02:55:11;;;;;;;16.88;7.03;;;4.60;92.70;;;;;;5086665;28;20193;-61
2021/03/10 02:57:39;;;;;;;17.08;7.13;;;4.60;92.90;;;;;;5092942;28;20056;-60
2021/03/10 03:00:09;;;;;;;18.50;7.90;;;4.50;92.90;;;;;;5085243;28;20263;-61
2021/03/10 03:02:37;;;;;;;17.35;8.32;;;4.50;93.00;;;;;;5090645;28;20115;-61
2021/03/10 03:05:06;;;;;;;19.27;8.45;;;4.50;93.10;;;;;;5089155;28;20044;-62
2021/03/10 03:07:36;;;;;;;16.80;7.38;;;4.50;93.30;;;;;;5091485;28;20120;-60
2021/03/10 03:10:09;;;;;;;19.17;7.40;;;4.60;93.40;;;;;;5088064;28;20153;-61
2021/03/10 03:12:36;;;;;;;15.70;7.43;;;4.50;93.40;;;;;;5073502;28;20411;-60
2021/03/10 03:15:10;;;;;;;14.70;6.43;;;4.50;93.30;;;;;;5067523;28;20090;-60
2021/03/10 03:17:38;;;;;;;16.10;8.30;;;4.50;93.40;;;;;;5069483;28;20061;-61
2021/03/10 03:20:06;;;;;;;21.25;8.82;;;4.40;93.50;;;;;;5068021;28;20057;-60
2021/03/10 03:22:35;;;;;;;16.08;8.25;;;4.50;93.60;;;;;;5068050;28;20410;-61
2021/03/10 03:25:08;;;;;;;20.40;8.38;;;4.40;93.70;;;;;;5082765;28;20048;-61
2021/03/10 03:27:35;;;;;;;18.02;8.27;;;4.40;93.70;;;;;;5068323;28;20533;-61
2021/03/10 03:30:06;;;;;;;17.38;8.77;;;4.50;93.50;;;;;;5069431;28;20240;-61
2021/03/10 03:32:35;;;;;;;23.55;11.73;;;4.40;93.10;;;;;;5065574;28;20060;-61
2021/03/10 03:35:06;;;;;;;24.30;9.48;;;4.40;93.10;;;;;;5068452;28;20080;-62
2021/03/10 03:37:33;;;;;;;21.50;6.88;;;4.40;93.00;;;;;;5068076;28;20054;-61
2021/03/10 03:40:01;;;;;;;18.38;7.60;;;4.50;92.80;;;;;;5065464;28;20150;-62
2021/03/10 03:42:33;;;;;;;15.65;7.10;;;4.50;93.10;;;;;;5069944;28;20491;-60
2021/03/10 03:45:00;;;;;;;18.90;8.20;;;4.40;93.40;;;;;;5064551;28;20052;-61
2021/03/10 03:47:30;;;;;;;19.85;8.85;;;4.40;93.30;;;;;;5069640;28;20056;-60
2021/03/10 03:49:58;;;;;;;16.30;7.50;;;4.50;93.20;;;;;;5066329;28;20059;-61
2021/03/10 03:52:25;;;;;;;20.25;9.82;;;4.60;93.30;;;;;;5068642;28;20111;-60
2021/03/10 03:54:52;;;;;;;17.65;7.57;;;4.50;93.30;;;;;;5069154;28;20056;-61
2021/03/10 03:57:19;;;;;;;15.38;6.97;;;4.50;93.30;;;;;;5065557;28;20871;-60
2021/03/10 03:59:46;;;;;;;19.95;8.75;;;4.60;93.30;;;;;;5099573;28;20052;-59
2021/03/10 04:02:13;;;;;;;18.58;9.23;;;4.60;93.20;;;;;;5066659;28;20436;-60
2021/03/10 04:04:40;;;;;;;21.50;9.35;;;4.60;93.10;;;;;;5065386;28;20366;-61
2021/03/10 04:07:08;;;;;;;22.08;10.20;;;4.60;93.10;;;;;;5064632;28;20335;-59
2021/03/10 04:09:35;;;;;;;23.88;10.88;;;4.60;93.00;;;;;;5067965;28;20272;-59
2021/03/10 04:12:02;;;;;;;24.27;10.98;;;4.60;92.90;;;;;;5066558;28;20055;-60
2021/03/10 04:14:29;;;;;;;21.05;10.52;;;4.60;92.60;;;;;;5063134;28;20710;-59
2021/03/10 04:16:56;;;;;;;21.45;9.52;;;4.60;92.60;;;;;;5064812;28;20053;-60
2021/03/10 04:19:23;;;;;;;22.70;9.55;;;4.60;92.80;;;;;;5068406;28;20053;-60
2021/03/10 04:21:50;;;;;;;22.70;9.73;;;4.60;92.60;;;;;;5080158;28;20062;-60
2021/03/10 04:24:18;;;;;;;22.67;9.45;;;4.60;92.70;;;;;;5074871;28;20098;-60
2021/03/10 04:26:46;;;;;;;25.65;11.13;;;4.60;92.80;;;;;;5064185;28;20040;-61
2021/03/10 04:29:13;;;;;;;23.45;11.30;;;4.60;92.80;;;;;;5062419;28;20115;-60
2021/03/10 04:31:40;;;;;;;21.27;10.88;;;4.50;92.80;;;;;;5063995;28;20290;-59
2021/03/10 04:34:10;;;;;;;27.95;10.10;;;4.60;92.80;;;;;;5081355;28;20059;-59
2021/03/10 04:36:43;;;;;;;22.55;11.43;;;4.60;92.80;;;;;;5070231;28;20089;-60
2021/03/10 04:39:32;;;;;;;22.27;10.90;;;4.60;93.00;;;;;;5079541;28;20424;-60
2021/03/10 04:42:08;;;;;;;21.20;9.63;;;4.50;93.00;;;;;;5085493;28;20074;-60
2021/03/10 04:44:36;;;;;;;25.73;11.68;;;4.50;93.00;;;;;;5060563;28;20041;-59
2021/03/10 04:47:06;;;;;;;23.88;11.13;;;4.50;93.10;;;;;;5061890;28;20092;-60
2021/03/10 04:49:36;;;;;;;26.25;11.32;;;4.50;93.30;;;;;;5083348;28;20128;-59
2021/03/10 04:52:04;;;;;;;25.77;11.98;;;4.50;93.10;;;;;;5084280;28;20509;-60
2021/03/10 04:54:32;;;;;;;23.45;10.32;;;4.50;93.00;;;;;;5086159;28;20059;-60
2021/03/10 04:56:59;;;;;;;21.25;10.60;;;4.60;93.20;;;;;;5081463;28;20051;-60
2021/03/10 04:59:26;;;;;;;24.85;10.02;;;4.50;92.90;;;;;;5086625;27;20048;-61
2021/03/10 05:01:53;;;;;;;22.60;10.93;;;4.50;92.90;;;;;;5089102;28;20048;-61
2021/03/10 05:04:20;;;;;;;30.38;11.45;;;4.50;92.80;;;;;;5087804;28;20374;-60
2021/03/10 05:06:48;;;;;;;27.60;13.60;;;4.50;92.80;;;;;;5086857;28;20282;-60
2021/03/10 05:09:16;;;;;;;24.85;11.13;;;4.50;92.80;;;;;;5076455;28;20346;-61
2021/03/10 05:11:43;;;;;;;26.13;11.43;;;4.40;92.80;;;;;;5078738;28;20283;-60
2021/03/10 05:14:11;;;;;;;24.27;11.70;;;4.50;92.90;;;;;;5087009;28;21504;-59
2021/03/10 05:16:38;;;;;;;27.10;11.48;;;4.50;92.90;;;;;;5090825;28;20056;-61
2021/03/10 05:19:09;;;;;;;29.77;12.55;;;4.50;92.90;;;;;;5087980;28;20407;-61
2021/03/10 05:21:36;;;;;;;23.75;10.30;;;4.50;92.80;;;;;;5090766;28;20151;-61
2021/03/10 05:24:09;;;;;;;25.13;11.48;;;4.50;92.80;;;;;;5089551;27;20263;-60
2021/03/10 05:26:38;;;;;;;20.25;9.88;;;4.50;93.00;;;;;;5087964;28;20263;-59
2021/03/10 05:29:06;;;;;;;18.60;9.05;;;4.50;93.10;;;;;;5091004;28;20051;-61
2021/03/10 05:31:33;;;;;;;22.77;9.93;;;4.50;93.10;;;;;;5090262;28;20040;-61
2021/03/10 05:34:00;;;;;;;23.02;9.63;;;4.40;93.20;;;;;;5087911;28;20047;-60
2021/03/10 05:36:30;;;;;;;27.45;10.90;;;4.40;93.30;;;;;;5087687;28;20060;-60
2021/03/10 05:38:58;;;;;;;20.33;9.80;;;4.40;93.30;;;;;;5089770;28;20052;-60
2021/03/10 05:41:25;;;;;;;21.02;9.98;;;4.40;93.40;;;;;;5089863;28;20281;-60
2021/03/10 05:43:53;;;;;;;20.92;9.90;;;4.40;93.40;;;;;;5088600;28;20044;-61
2021/03/10 05:46:21;;;;;;;21.60;10.82;;;4.40;93.20;;;;;;5087681;28;20227;-61
2021/03/10 05:48:54;;;;;;;20.67;9.30;;;4.40;93.30;;;;;;5090502;28;20063;-60
2021/03/10 05:51:21;;;;;;;25.63;10.43;;;4.40;93.00;;;;;;5051103;28;21455;-60
2021/03/10 05:53:53;;;;;;;22.15;9.82;;;4.40;92.90;;;;;;5065456;28;20052;-61
2021/03/10 05:56:21;;;;;;;22.50;11.07;;;4.40;92.90;;;;;;5055035;28;20060;-60
2021/03/10 05:58:55;;;;;;;21.15;8.55;;;4.40;93.00;;;;;;5074384;28;20070;-60
2021/03/10 06:01:23;;;;;;;23.45;11.20;;;4.40;92.80;;;;;;5086965;28;20360;-61
2021/03/10 06:03:54;;;;;;;23.05;9.75;;;4.40;93.00;;;;;;5083990;28;20036;-61
2021/03/10 06:06:21;;;;;;;21.38;8.75;;;4.40;92.80;;;;;;5083842;28;20039;-60
2021/03/10 06:08:48;;;;;;;29.80;10.10;;;4.40;92.90;;;;;;5087726;28;20048;-61
2021/03/10 06:11:26;;;;;;;19.38;10.57;;;4.40;92.80;;;;;;5064512;28;20412;-60
2021/03/10 06:13:54;;;;;;;21.55;8.95;;;4.50;92.80;;;;;;5071200;28;20045;-61
2021/03/10 06:16:23;;;;;;;22.77;10.27;;;4.50;92.90;;;;;;5074006;28;20049;-59
2021/03/10 06:19:07;;;;;;;27.42;11.20;;;4.60;92.80;;;;;;5069543;28;20108;-60
2021/03/10 06:21:34;;;;;;;24.00;10.75;;;4.60;92.60;;;;;;5068883;28;20261;-61
2021/03/10 06:24:04;;;;;;;25.10;9.52;;;4.60;92.60;;;;;;5071780;28;20438;-60
2021/03/10 06:26:32;;;;;;;26.07;11.13;;;4.70;92.30;;;;;;5068638;28;20102;-60
2021/03/10 06:29:00;;;;;;;23.85;8.95;;;4.70;92.10;;;;;;5074337;28;20094;-60
2021/03/10 06:31:42;;;;;;;22.85;10.38;;;4.80;91.80;;;;;;5070244;28;20047;-60
2021/03/10 06:34:10;;;;;;;22.83;10.38;;;4.80;91.90;;;;;;5067139;28;20147;-60
2021/03/10 06:36:39;;;;;;;22.38;12.40;;;4.80;91.80;;;;;;5068230;28;20056;-60
2021/03/10 06:39:08;;;;;;;23.55;10.30;;;4.90;91.90;;;;;;5072648;28;20064;-60
2021/03/10 06:41:37;;;;;;;26.25;10.95;;;4.90;91.70;;;;;;5069563;28;20049;-60
2021/03/10 06:44:15;;;;;;;23.25;11.20;;;4.90;91.60;;;;;;5105502;27;20048;-61
2021/03/10 06:46:54;;;;;;;25.30;9.88;;;5.00;91.10;;;;;;5091311;28;20343;-60
2021/03/10 06:49:22;;;;;;;22.85;9.60;;;4.90;91.00;;;;;;5095246;28;20339;-60
2021/03/10 06:51:56;;;;;;;27.88;10.95;;;5.00;91.00;;;;;;5095084;28;20067;-60
2021/03/10 06:54:24;;;;;;;26.60;11.65;;;5.10;90.80;;;;;;5075774;28;20220;-60
2021/03/10 06:57:01;;;;;;;29.27;11.90;;;5.10;90.40;;;;;;5074432;28;20059;-61
2021/03/10 06:59:41;;;;;;;31.00;11.75;;;5.20;90.20;;;;;;5074478;28;20044;-60
2021/03/10 07:02:14;;;;;;;22.10;11.50;;;5.30;90.40;;;;;;5070961;28;20406;-60
2021/03/10 07:04:42;;;;;;;25.48;12.10;;;5.30;90.30;;;;;;5072923;28;20060;-61
2021/03/10 07:07:10;;;;;;;21.95;10.70;;;5.30;89.40;;;;;;5072145;28;20255;-61
2021/03/10 07:09:37;;;;;;;27.27;12.57;;;5.40;89.90;;;;;;5064330;28;20082;-61
2021/03/10 07:12:07;;;;;;;26.23;11.75;;;5.40;90.00;;;;;;5069825;28;20037;-61
2021/03/10 07:14:35;;;;;;;29.48;11.68;;;5.40;90.00;;;;;;5065744;28;20706;-60
2021/03/10 07:17:04;;;;;;;25.80;11.85;;;5.40;89.20;;;;;;5066053;28;20067;-61
2021/03/10 07:19:32;;;;;;;32.83;13.52;;;5.40;90.00;;;;;;5068999;28;20084;-60
2021/03/10 07:22:05;;;;;;;22.98;10.73;;;5.50;89.60;;;;;;5065551;28;20064;-60
2021/03/10 07:24:37;;;;;;;23.58;10.68;;;5.50;89.10;;;;;;5067316;28;20053;-60
2021/03/10 07:27:05;;;;;;;28.42;11.68;;;5.40;89.00;;;;;;5065467;28;20086;-60
2021/03/10 07:29:37;;;;;;;28.02;11.60;;;5.50;89.40;;;;;;5083618;28;20067;-59
2021/03/10 07:32:07;;;;;;;27.58;11.43;;;5.70;88.60;;;;;;5066325;28;20056;-60
2021/03/10 07:34:35;;;;;;;23.45;9.35;;;5.70;88.10;;;;;;5090247;28;20067;-60
2021/03/10 07:37:12;;;;;;;25.52;11.93;;;5.60;88.50;;;;;;5089884;28;20063;-60
2021/03/10 07:39:39;;;;;;;23.45;10.75;;;5.80;88.10;;;;;;5105198;27;20060;-60
2021/03/10 07:42:11;;;;;;;25.05;11.00;;;5.80;88.10;;;;;;5086824;28;20048;-61
2021/03/10 07:44:55;;;;;;;27.48;12.18;;;6.00;87.40;;;;;;5075715;28;20044;-61
2021/03/10 07:47:22;;;;;;;28.00;11.10;;;5.90;86.90;;;;;;5077847;28;20335;-62
2021/03/10 07:49:58;;;;;;;23.70;10.35;;;5.90;87.50;;;;;;5085702;28;20119;-60
2021/03/10 07:52:27;;;;;;;27.15;11.85;;;5.90;87.40;;;;;;5086758;28;20040;-60
2021/03/10 07:54:59;;;;;;;24.70;12.20;;;6.10;87.50;;;;;;5084747;28;20066;-60
2021/03/10 07:57:26;;;;;;;24.25;10.77;;;6.20;86.90;;;;;;5086184;28;20052;-61
2021/03/10 07:59:54;;;;;;;22.73;11.23;;;6.10;86.00;;;;;;5086167;28;20057;-61
2021/03/10 08:02:21;;;;;;;26.50;11.18;;;6.20;86.30;;;;;;5086930;28;20074;-60
2021/03/10 08:04:56;;;;;;;26.17;11.40;;;6.10;86.60;;;;;;5085818;27;20087;-60
2021/03/10 08:07:25;;;;;;;32.08;13.40;;;6.20;86.40;;;;;;5065710;28;20528;-60
2021/03/10 08:09:54;;;;;;;;;;;6.40;85.60;;;;;;5066092;28;20102;-60
2021/03/10 08:12:33;;;;;;;21.65;10.00;;;6.40;85.60;;;;;;5064585;28;20280;-60
2021/03/10 08:14:59;;;;;;;21.88;10.75;;;6.50;84.80;;;;;;5071030;28;20382;-61
2021/03/10 08:17:29;;;;;;;28.00;12.90;;;6.20;85.20;;;;;;5063183;28;20336;-60
2021/03/10 08:19:58;;;;;;;29.08;12.05;;;6.30;85.30;;;;;;5067937;28;20119;-61
2021/03/10 08:22:28;;;;;;;30.88;12.73;;;6.30;84.90;;;;;;5065872;28;20089;-59
2021/03/10 08:24:57;;;;;;;26.80;13.55;;;6.40;84.40;;;;;;5064112;28;20072;-60
2021/03/10 08:27:31;;;;;;;28.58;12.13;;;6.50;84.20;;;;;;5063710;28;20348;-60
2021/03/10 08:29:58;;;;;;;33.95;13.45;;;6.60;83.70;;;;;;5066418;28;20060;-61
2021/03/10 08:32:27;;;;;;;26.58;11.35;;;6.70;83.70;;;;;;5065534;28;20377;-60
2021/03/10 08:34:59;;;;;;;25.27;11.85;;;6.80;82.40;;;;;;5068221;28;20210;-60
2021/03/10 08:37:27;;;;;;;26.80;11.80;;;6.70;82.10;;;;;;5064060;28;20126;-60
2021/03/10 08:39:54;;;;;;;23.38;10.50;;;6.70;82.00;;;;;;5087670;28;20076;-60
2021/03/10 08:42:22;;;;;;;25.52;10.88;;;6.90;81.70;;;;;;5067732;28;20066;-60
2021/03/10 08:44:51;;;;;;;21.50;10.85;;;7.00;80.40;;;;;;5081220;28;20068;-61
2021/03/10 08:47:20;;;;;;;24.60;10.82;;;7.00;79.70;;;;;;5062176;28;20055;-60
2021/03/10 08:49:51;;;;;;;27.20;12.77;;;7.20;79.50;;;;;;5066765;28;20075;-60
2021/03/10 08:52:22;;;;;;;22.38;9.98;;;7.40;78.30;;;;;;5063168;28;20445;-60
2021/03/10 08:54:52;;;;;;;27.73;9.48;;;7.60;77.00;;;;;;5081051;28;20148;-60
2021/03/10 08:57:21;;;;;;;21.80;10.75;;;7.80;76.00;;;;;;5069881;28;20044;-60
2021/03/10 08:59:49;;;;;;;22.58;10.20;;;8.00;76.00;;;;;;5079087;28;20052;-60
2021/03/10 09:02:16;;;;;;;27.02;10.88;;;8.20;75.00;;;;;;5078774;28;20060;-60
2021/03/10 09:04:47;;;;;;;22.48;9.85;;;8.00;75.20;;;;;;5061503;28;20251;-60
2021/03/10 09:07:17;;;;;;;26.90;11.02;;;8.20;74.40;;;;;;5064543;28;20406;-60
2021/03/10 09:09:47;;;;;;;27.48;12.55;;;8.10;73.90;;;;;;5080022;28;20052;-60
2021/03/10 09:12:16;;;;;;;24.75;10.38;;;7.90;74.70;;;;;;5066782;28;20562;-60
2021/03/10 09:14:52;;;;;;;23.77;10.65;;;7.50;76.50;;;;;;5068966;28;20128;-59
2021/03/10 09:17:31;;;;;;;23.73;10.95;;;7.50;75.60;;;;;;5092025;28;20049;-59
2021/03/10 09:20:02;;;;;;;26.30;10.73;;;7.50;75.80;;;;;;5086139;28;20057;-60
2021/03/10 09:22:43;;;;;;;17.52;8.95;;;7.20;73.20;;;;;;5069540;28;20056;-61
2021/03/10 09:25:33;;;;;;;19.45;9.43;;;7.40;72.60;;;;;;5081760;28;20524;-60
2021/03/10 09:28:09;;;;;;;20.33;8.65;;;7.40;71.00;;;;;;5085858;28;20090;-60
2021/03/10 09:30:45;;;;;;;22.48;9.68;;;7.60;69.00;;;;;;5082670;28;20113;-61
2021/03/10 09:33:20;;;;;;;23.95;9.40;;;7.90;69.00;;;;;;5059252;28;20115;-60
2021/03/10 09:35:52;;;;;;;19.42;10.05;;;8.20;68.50;;;;;;5078308;28;20272;-61
2021/03/10 09:38:21;;;;;;;18.35;7.57;;;8.20;67.20;;;;;;5059872;28;20344;-60
2021/03/10 09:40:52;;;;;;;18.52;8.45;;;8.10;65.90;;;;;;5073109;28;20045;-61
2021/03/10 09:43:22;;;;;;;20.10;9.02;;;8.20;65.60;;;;;;5063107;28;20049;-61
2021/03/10 09:45:54;;;;;;;22.17;10.07;;;8.20;68.40;;;;;;5062312;28;20048;-61
2021/03/10 09:48:29;;;;;;;14.30;7.93;;;8.40;69.40;;;;;;5066566;28;20067;-60
2021/03/10 09:51:03;;;;;;;19.65;9.25;;;8.60;67.30;;;;;;5072376;28;20048;-61
2021/03/10 09:53:32;;;;;;;19.38;8.38;;;8.70;68.30;;;;;;5067863;28;20059;-60
2021/03/10 09:56:07;;;;;;;19.35;8.82;;;8.50;68.70;;;;;;5069498;28;20068;-60
2021/03/10 09:58:47;;;;;;;16.52;8.48;;;8.70;67.30;;;;;;5070623;28;20067;-61
2021/03/10 10:01:16;;;;;;;14.90;8.35;;;8.60;66.10;;;;;;5086733;28;22803;-60
2021/03/10 10:03:50;;;;;;;17.98;8.95;;;8.50;67.40;;;;;;5089944;28;20143;-60
2021/03/10 10:06:20;;;;;;;18.08;9.07;;;8.10;67.40;;;;;;5092311;28;20066;-60
2021/03/10 10:08:51;;;;;;;20.98;7.70;;;8.20;67.00;;;;;;5104413;27;20055;-60
2021/03/10 10:11:21;;;;;;;14.75;7.35;;;8.60;65.80;;;;;;5087301;28;20046;-60
2021/03/10 10:13:50;;;;;;;21.48;8.73;;;9.30;63.90;;;;;;5077873;28;20056;-60
2021/03/10 10:16:20;;;;;;;17.92;7.85;;;9.90;61.80;;;;;;5065465;28;20718;-60
2021/03/10 10:18:49;;;;;;;21.50;9.40;;;10.30;60.80;;;;;;5067093;28;20068;-60
2021/03/10 10:21:17;;;;;;;19.20;9.10;;;10.70;59.30;;;;;;5090629;28;20396;-60
2021/03/10 10:23:47;;;;;;;18.73;8.10;;;11.40;56.40;;;;;;5104174;27;20047;-61
2021/03/10 10:26:17;;;;;;;18.63;8.23;;;11.00;57.00;;;;;;5071616;28;20385;-61
2021/03/10 10:28:48;;;;;;;19.17;7.78;;;10.90;55.00;;;;;;5069935;28;20433;-59
2021/03/10 10:31:18;;;;;;;17.85;9.07;;;10.70;54.60;;;;;;5071120;28;20601;-60
2021/03/10 10:33:45;;;;;;;15.05;7.93;;;10.40;53.90;;;;;;5089996;28;20062;-61
2021/03/10 10:36:13;;;;;;;18.30;8.85;;;10.70;54.60;;;;;;5091628;28;20086;-61
2021/03/10 10:38:44;;;;;;;14.80;7.57;;;11.10;54.10;;;;;;5073969;28;20067;-61
2021/03/10 10:41:11;;;;;;;16.25;8.57;;;11.30;53.20;;;;;;5065361;28;20048;-60
2021/03/10 10:43:38;;;;;;;17.13;8.30;;;11.80;52.00;;;;;;5070074;28;20275;-60
2021/03/10 10:46:10;;;;;;;17.27;7.93;;;11.30;52.10;;;;;;5082429;28;20053;-60
2021/03/10 10:48:43;;;;;;;14.57;7.22;;;11.90;49.80;;;;;;5088263;27;20370;-60
2021/03/10 10:51:19;;;;;;;16.67;8.07;;;12.30;48.10;;;;;;5066067;28;20461;-61
2021/03/10 10:54:00;;;;;;;18.90;8.07;;;12.90;46.10;;;;;;5069108;28;20053;-60
2021/03/10 10:56:30;;;;;;;15.13;7.10;;;13.20;45.90;;;;;;5066641;28;20060;-60
2021/03/10 10:59:05;;;;;;;17.38;8.25;;;14.20;43.20;;;;;;5066772;28;20094;-61
2021/03/10 11:01:39;;;;;;;18.20;8.52;;;13.70;43.50;;;;;;5066509;28;20064;-60
2021/03/10 11:04:06;;;;;;;16.90;7.72;;;13.70;44.80;;;;;;5065485;28;20112;-62
2021/03/10 11:06:33;;;;;;;16.70;7.65;;;13.00;45.80;;;;;;5063840;28;20098;-60
2021/03/10 11:09:02;;;;;;;19.10;7.68;;;13.00;45.70;;;;;;5064739;28;20049;-61
2021/03/10 11:11:29;;;;;;;30.60;15.13;;;13.40;45.70;;;;;;5065550;28;20112;-60
2021/03/10 11:13:57;;;;;;;19.48;8.88;;;13.50;44.50;;;;;;5069549;28;20120;-60
2021/03/10 11:16:31;;;;;;;14.18;7.30;;;13.10;44.60;;;;;;5080760;28;20056;-60
2021/03/10 11:19:11;;;;;;;17.90;7.30;;;12.20;46.90;;;;;;5067997;28;20049;-60
2021/03/10 11:21:40;;;;;;;14.93;7.10;;;11.60;49.30;;;;;;5079024;28;20051;-60
2021/03/10 11:24:10;;;;;;;16.45;7.65;;;11.60;50.00;;;;;;5076629;28;20072;-60
2021/03/10 11:26:39;;;;;;;15.63;6.88;;;12.80;46.90;;;;;;5058980;28;20066;-61
2021/03/10 11:29:08;;;;;;;13.98;6.30;;;13.10;46.10;;;;;;5065180;28;20052;-60
2021/03/10 11:31:36;;;;;;;16.02;7.68;;;13.10;44.80;;;;;;5064366;28;21286;-60
2021/03/10 11:34:03;;;;;;;13.48;7.38;;;12.60;47.10;;;;;;5062782;28;20076;-60
2021/03/10 11:36:34;;;;;;;14.98;6.90;;;12.80;46.30;;;;;;5096087;28;20060;-60
2021/03/10 11:39:08;;;;;;;18.43;8.07;;;12.80;45.30;;;;;;5093884;28;20056;-60
2021/03/10 11:41:35;;;;;;;13.30;6.55;;;12.20;48.00;;;;;;5062369;28;21091;-60
2021/03/10 11:44:09;;;;;;;13.93;6.22;;;11.80;49.20;;;;;;5062442;28;20217;-60
2021/03/10 11:46:37;;;;;;;14.73;6.82;;;11.70;49.70;;;;;;5064326;28;20064;-60
2021/03/10 11:49:04;;;;;;;12.20;6.70;;;12.20;49.00;;;;;;5062524;28;20104;-60
2021/03/10 11:51:31;;;;;;;14.85;6.40;;;12.60;47.20;;;;;;5063322;28;20060;-60
2021/03/10 11:54:00;;;;;;;12.65;5.90;;;13.10;47.00;;;;;;5061674;28;20059;-60
2021/03/10 11:56:30;;;;;;;13.35;7.15;;;13.30;45.30;;;;;;5063617;28;20052;-60
2021/03/10 11:58:57;;;;;;;14.40;6.68;;;12.70;46.90;;;;;;5077086;28;20090;-60
2021/03/10 12:01:39;;;;;;;12.57;6.47;;;12.90;45.60;;;;;;5081299;28;20057;-61
2021/03/10 12:04:07;;;;;;;14.75;6.53;;;13.00;46.90;;;;;;5058430;28;20049;-61
2021/03/10 12:06:56;;;;;;;15.57;6.97;;;13.40;46.10;;;;;;5061257;28;20371;-59
2021/03/10 12:09:24;;;;;;;13.50;7.05;;;12.90;46.70;;;;;;5067622;28;20136;-60
2021/03/10 12:11:52;;;;;;;13.10;6.32;;;12.30;48.10;;;;;;5068517;28;20055;-60
2021/03/10 12:14:19;;;;;;;16.52;7.05;;;11.90;48.60;;;;;;5069965;28;20065;-60
2021/03/10 12:16:46;;;;;;;15.75;6.65;;;12.10;49.30;;;;;;5070068;28;20044;-60
2021/03/10 12:19:13;;;;;;;14.02;6.70;;;11.90;49.10;;;;;;5072075;28;20044;-60
2021/03/10 12:21:40;;;;;;;12.02;5.90;;;12.90;47.20;;;;;;5078497;28;20090;-60
2021/03/10 12:24:09;;;;;;;12.52;5.13;;;13.60;44.70;;;;;;5090876;27;20339;-60
2021/03/10 12:26:37;;;;;;;13.35;6.00;;;13.20;44.90;;;;;;5090507;28;20052;-60
2021/03/10 12:29:04;;;;;;;11.27;5.65;;;12.90;46.60;;;;;;5088167;28;20040;-61
2021/03/10 12:31:31;;;;;;;11.38;5.43;;;13.90;42.80;;;;;;5061668;27;20047;-61
2021/03/10 12:33:58;;;;;;;13.30;6.32;;;14.00;43.30;;;;;;989639;28;10002202;-60
2021/03/10 12:36:25;;;;;;;12.48;5.75;;;14.40;41.80;;;;;;5050856;28;20104;-61
2021/03/10 12:38:52;;;;;;;13.65;5.38;;;14.70;41.50;;;;;;5057248;28;20072;-60
2021/03/10 12:41:19;;;;;;;9.48;4.60;;;15.20;40.30;;;;;;5054674;28;20060;-61
2021/03/10 12:43:48;;;;;;;12.15;4.95;;;14.60;40.80;;;;;;5053277;28;20048;-61
2021/03/10 12:46:16;;;;;;;12.30;5.32;;;14.10;41.60;;;;;;5068989;28;20561;-61
2021/03/10 12:48:42;;;;;;;12.70;5.43;;;14.10;41.40;;;;;;5045796;28;20120;-59
2021/03/10 12:51:11;;;;;;;10.95;4.75;;;14.40;41.40;;;;;;5051430;28;20128;-60
2021/03/10 12:53:38;;;;;;;10.75;5.18;;;13.70;42.50;;;;;;5054759;28;20069;-59
2021/03/10 12:56:06;;;;;;;10.07;4.38;;;13.50;43.40;;;;;;5055328;28;20051;-59